Time;durP1;ratioP1;P1;durP2;ratioP2;P2;SDS_P1;SDS_P2;PMS_P1;PMS_P2;Temp;Humidity;BMP_temperature;BMP_pressure;BME280_temperature;BME280_humidity;BME280_pressure;Samples;Min_cycle;Max_cycle;Signal;HPM_P1;HPM_P2
2021/11/07 00:00:11;;;;;;;16.63;6.78;;;;;;;;;;5052003;28;20543;-67
2021/11/07 00:02:53;;;;;;;19.10;7.78;;;;;;;;;;5034153;28;20078;-68
2021/11/07 00:05:44;;;;;;;16.90;7.32;;;;;;;;;;5051862;28;20021;-66
2021/11/07 00:11:01;;;;;;;19.17;9.00;;;;;;;;;;5022750;28;20622;-67
2021/11/07 00:13:27;;;;;;;20.52;9.32;;;;;;;;;;5051741;28;20021;-67
2021/11/07 00:15:55;;;;;;;19.02;9.57;;;;;;;;;;5051927;28;20499;-67
2021/11/07 00:18:26;;;;;;;17.77;7.47;;;;;;;;;;5033921;28;20052;-69
2021/11/07 00:20:57;;;;;;;19.63;8.43;;;;;;;;;;5051545;28;20031;-68
2021/11/07 00:26:36;;;;;;;20.17;9.75;;;;;;;;;;4970533;28;20027;-67
2021/11/07 00:29:09;;;;;;;20.27;9.82;;;;;;;;;;5040918;28;20029;-68
2021/11/07 00:36:53;;;;;;;21.92;11.70;;;;;;;;;;5051788;28;20064;-67
2021/11/07 00:46:48;;;;;;;22.98;15.05;;;;;;;;;;5051549;28;20029;-68
2021/11/07 00:52:15;;;;;;;27.52;14.73;;;;;;;;;;5051388;28;20128;-69
2021/11/07 00:55:01;;;;;;;23.73;16.40;;;;;;;;;;5050937;28;20033;-68
2021/11/07 01:00:04;;;;;;;21.52;14.43;;;;;;;;;;5051408;28;20040;-68
2021/11/07 01:02:32;;;;;;;23.67;15.75;;;;;;;;;;5051268;28;20025;-68
2021/11/07 01:04:59;;;;;;;24.87;15.77;;;;;;;;;;5033483;28;20174;-68
2021/11/07 01:07:25;;;;;;;23.70;14.98;;;;;;;;;;5051412;28;20100;-69
2021/11/07 01:09:52;;;;;;;22.48;15.40;;;;;;;;;;5033431;28;20057;-68
2021/11/07 01:12:18;;;;;;;22.77;16.40;;;;;;;;;;5033372;28;20033;-67
2021/11/07 01:14:44;;;;;;;27.38;17.70;;;;;;;;;;5032980;28;20492;-68
2021/11/07 01:17:10;;;;;;;27.15;17.08;;;;;;;;;;5033163;28;20025;-68
2021/11/07 01:19:37;;;;;;;25.83;17.42;;;;;;;;;;5052328;28;20031;-67
2021/11/07 01:22:06;;;;;;;23.20;14.65;;;;;;;;;;5054870;28;20396;-67
2021/11/07 01:24:36;;;;;;;22.63;14.45;;;;;;;;;;5054826;28;20013;-67
2021/11/07 01:27:17;;;;;;;25.45;14.90;;;;;;;;;;5037218;28;20066;-68
2021/11/07 01:29:48;;;;;;;26.48;16.27;;;;;;;;;;5054996;28;20021;-67
2021/11/07 01:32:15;;;;;;;26.60;14.85;;;;;;;;;;5055111;28;20401;-68
2021/11/07 01:37:20;;;;;;;23.35;17.13;;;;;;;;;;5054704;28;20120;-68
2021/11/07 01:42:37;;;;;;;23.10;18.67;;;;;;;;;;5054880;28;20032;-69
2021/11/07 01:45:09;;;;;;;25.20;21.15;;;;;;;;;;5053631;28;20025;-69
2021/11/07 01:47:43;;;;;;;30.55;21.27;;;;;;;;;;5036506;28;20116;-68
2021/11/07 01:50:11;;;;;;;24.73;20.70;;;;;;;;;;5054178;28;20025;-68
2021/11/07 01:52:41;;;;;;;24.38;20.50;;;;;;;;;;5054399;28;20093;-69
2021/11/07 01:55:07;;;;;;;23.45;19.02;;;;;;;;;;5054412;28;20147;-68
2021/11/07 01:57:34;;;;;;;23.38;19.80;;;;;;;;;;5054369;28;20025;-68
2021/11/07 02:00:04;;;;;;;23.83;20.77;;;;;;;;;;5054218;28;20463;-67
2021/11/07 02:02:34;;;;;;;25.40;21.20;;;;;;;;;;5036426;28;20464;-67
2021/11/07 02:05:00;;;;;;;26.17;21.58;;;;;;;;;;5035847;28;20028;-68
2021/11/07 02:07:26;;;;;;;23.60;20.48;;;;;;;;;;5036298;28;20029;-67
2021/11/07 02:09:52;;;;;;;23.90;19.98;;;;;;;;;;5036268;28;20021;-67
2021/11/07 02:12:19;;;;;;;22.27;18.00;;;;;;;;;;5036311;28;20033;-67
2021/11/07 02:14:45;;;;;;;23.38;18.98;;;;;;;;;;5036114;28;20094;-68
2021/11/07 02:17:12;;;;;;;23.98;19.58;;;;;;;;;;5036187;28;20087;-71
2021/11/07 02:19:38;;;;;;;22.67;18.85;;;;;;;;;;5053766;28;20025;-68
2021/11/07 02:22:05;;;;;;;23.85;21.25;;;;;;;;;;5053518;28;20025;-68
2021/11/07 02:24:33;;;;;;;22.80;18.63;;;;;;;;;;5053649;28;20099;-67
2021/11/07 02:27:01;;;;;;;23.48;20.23;;;;;;;;;;5035744;28;20663;-68
2021/11/07 02:29:28;;;;;;;23.05;19.98;;;;;;;;;;5035742;28;20025;-67
2021/11/07 02:31:57;;;;;;;22.05;18.40;;;;;;;;;;5053131;28;20384;-68
2021/11/07 02:34:28;;;;;;;24.20;20.05;;;;;;;;;;5053357;28;20029;-67
2021/11/07 02:36:54;;;;;;;22.77;18.65;;;;;;;;;;5053505;28;20765;-68
2021/11/07 02:39:21;;;;;;;22.63;17.98;;;;;;;;;;5035639;28;20139;-68
2021/11/07 02:41:48;;;;;;;20.75;14.85;;;;;;;;;;5053578;28;20129;-67
2021/11/07 02:44:26;;;;;;;21.70;14.13;;;;;;;;;;5035376;28;20495;-67
2021/11/07 02:46:52;;;;;;;;;;;;;;;;;;5036359;28;20166;-67
2021/11/07 02:49:19;;;;;;;20.13;13.45;;;;;;;;;;5054565;28;19963;-67
2021/11/07 02:51:45;;;;;;;21.80;14.93;;;;;;;;;;5053895;28;20472;-67
2021/11/07 02:54:11;;;;;;;19.55;12.65;;;;;;;;;;5052991;28;20470;-68
2021/11/07 02:56:37;;;;;;;28.52;13.73;;;;;;;;;;5053072;28;20025;-67
2021/11/07 02:59:04;;;;;;;22.33;15.52;;;;;;;;;;5053040;28;20101;-67
2021/11/07 03:01:31;;;;;;;23.73;15.82;;;;;;;;;;5052892;28;20393;-66
2021/11/07 03:04:01;;;;;;;22.27;13.73;;;;;;;;;;5034900;28;20032;-66
2021/11/07 03:06:31;;;;;;;22.05;14.27;;;;;;;;;;5034835;28;20047;-67
2021/11/07 03:08:57;;;;;;;22.17;13.88;;;;;;;;;;5035031;28;20017;-68
2021/11/07 03:11:23;;;;;;;21.02;14.50;;;;;;;;;;5034819;28;20075;-68
2021/11/07 03:13:50;;;;;;;23.80;14.50;;;;;;;;;;5052457;28;20067;-68
2021/11/07 03:16:16;;;;;;;23.08;16.35;;;;;;;;;;5052662;28;20021;-66
2021/11/07 03:18:43;;;;;;;25.75;17.25;;;;;;;;;;5034783;28;20364;-67
2021/11/07 03:21:15;;;;;;;19.73;12.60;;;;;;;;;;5034623;28;20056;-67
2021/11/07 03:23:52;;;;;;;23.27;15.73;;;;;;;;;;5052285;28;20060;-68
2021/11/07 03:26:24;;;;;;;23.45;16.83;;;;;;;;;;5052613;28;20025;-68
2021/11/07 03:28:53;;;;;;;23.38;14.13;;;;;;;;;;5052780;28;20027;-68
2021/11/07 03:31:33;;;;;;;21.00;14.52;;;;;;;;;;5034407;28;20025;-68
2021/11/07 03:34:02;;;;;;;22.38;14.98;;;;;;;;;;5052221;28;20572;-67
2021/11/07 03:36:42;;;;;;;21.60;14.52;;;;;;;;;;5052309;28;20079;-67
2021/11/07 03:39:09;;;;;;;22.23;14.60;;;;;;;;;;5034434;28;20079;-67
2021/11/07 03:41:35;;;;;;;23.70;15.60;;;;;;;;;;5051609;28;20315;-67
2021/11/07 03:44:01;;;;;;;23.13;13.98;;;;;;;;;;5033845;28;20032;-67
2021/11/07 03:46:27;;;;;;;22.48;13.55;;;;;;;;;;5052215;28;20017;-67
2021/11/07 03:48:53;;;;;;;27.48;16.00;;;;;;;;;;5034118;28;20374;-67
2021/11/07 03:51:19;;;;;;;20.73;13.40;;;;;;;;;;5034019;28;20100;-67
2021/11/07 03:53:45;;;;;;;23.48;14.68;;;;;;;;;;5052065;28;20021;-68
2021/11/07 03:56:12;;;;;;;21.30;14.55;;;;;;;;;;5052168;28;20035;-68
2021/11/07 03:58:38;;;;;;;24.98;14.68;;;;;;;;;;5034168;28;20031;-68
2021/11/07 04:01:04;;;;;;;22.48;14.88;;;;;;;;;;5051852;28;20021;-68
2021/11/07 04:03:30;;;;;;;21.48;14.57;;;;;;;;;;5033613;28;20028;-67
2021/11/07 04:05:56;;;;;;;21.95;13.90;;;;;;;;;;5051808;28;20017;-67
2021/11/07 04:08:22;;;;;;;21.92;13.52;;;;;;;;;;5034161;28;20028;-67
2021/11/07 04:10:48;;;;;;;21.05;13.57;;;;;;;;;;5051866;28;20021;-69
2021/11/07 04:13:15;;;;;;;23.83;14.07;;;;;;;;;;5051555;28;20017;-68
2021/11/07 04:15:41;;;;;;;21.00;13.80;;;;;;;;;;5033749;28;20044;-68
2021/11/07 04:18:07;;;;;;;19.35;11.73;;;;;;;;;;5033749;28;20017;-67
2021/11/07 04:20:33;;;;;;;21.55;13.40;;;;;;;;;;5051338;28;20116;-67
2021/11/07 04:22:59;;;;;;;21.05;13.75;;;;;;;;;;5033797;28;20025;-67
2021/11/07 04:25:25;;;;;;;25.05;14.95;;;;;;;;;;5033656;28;20017;-67
2021/11/07 04:27:52;;;;;;;22.95;17.13;;;;;;;;;;5050946;28;20029;-68
2021/11/07 04:30:18;;;;;;;22.08;15.77;;;;;;;;;;5033597;28;20171;-68
2021/11/07 04:32:44;;;;;;;22.48;16.83;;;;;;;;;;5033408;28;20053;-67
2021/11/07 04:35:10;;;;;;;22.45;16.88;;;;;;;;;;5051520;28;20025;-67
2021/11/07 04:37:41;;;;;;;22.60;16.70;;;;;;;;;;5033767;28;20119;-67
2021/11/07 04:40:08;;;;;;;22.23;16.70;;;;;;;;;;5051516;28;20480;-68
2021/11/07 04:42:35;;;;;;;21.35;16.10;;;;;;;;;;5051529;28;20033;-68
2021/11/07 04:45:01;;;;;;;22.40;17.08;;;;;;;;;;5051001;28;20032;-68
2021/11/07 04:47:27;;;;;;;23.20;14.77;;;;;;;;;;5051193;28;20021;-68
2021/11/07 04:49:54;;;;;;;27.00;15.57;;;;;;;;;;5051088;28;20049;-69
2021/11/07 04:52:21;;;;;;;21.05;15.13;;;;;;;;;;5051269;28;20539;-68
2021/11/07 04:54:47;;;;;;;23.17;16.05;;;;;;;;;;5036263;28;20124;-68
2021/11/07 04:57:13;;;;;;;23.38;16.42;;;;;;;;;;5055280;28;20036;-68
2021/11/07 04:59:39;;;;;;;23.17;16.60;;;;;;;;;;5055328;28;20072;-68
2021/11/07 05:02:05;;;;;;;22.70;16.63;;;;;;;;;;5054943;28;20032;-68
2021/11/07 05:04:31;;;;;;;22.98;17.30;;;;;;;;;;5037153;28;20021;-68
2021/11/07 05:06:57;;;;;;;25.15;18.13;;;;;;;;;;5055280;28;20029;-68
2021/11/07 05:09:24;;;;;;;23.20;16.52;;;;;;;;;;5055072;28;20155;-68
2021/11/07 05:11:50;;;;;;;24.23;17.40;;;;;;;;;;5037062;28;20029;-68
2021/11/07 05:14:16;;;;;;;25.20;18.13;;;;;;;;;;5054908;28;20044;-67
2021/11/07 05:16:42;;;;;;;27.42;19.02;;;;;;;;;;5054827;28;20029;-69
2021/11/07 05:19:08;;;;;;;25.23;19.92;;;;;;;;;;5036998;28;20499;-68
2021/11/07 05:21:34;;;;;;;29.27;21.00;;;;;;;;;;5054682;28;20485;-68
2021/11/07 05:24:01;;;;;;;24.60;19.20;;;;;;;;;;5054947;28;20086;-70
2021/11/07 05:26:27;;;;;;;25.65;21.35;;;;;;;;;;5036863;28;20389;-68
2021/11/07 05:28:53;;;;;;;29.92;23.70;;;;;;;;;;5037006;28;20021;-67
2021/11/07 05:31:19;;;;;;;26.58;23.40;;;;;;;;;;5054342;28;20472;-68
2021/11/07 05:33:45;;;;;;;30.02;24.98;;;;;;;;;;5051352;28;20096;-67
2021/11/07 05:36:12;;;;;;;27.75;24.50;;;;;;;;;;5054366;28;20056;-67
2021/11/07 05:38:38;;;;;;;29.15;24.17;;;;;;;;;;5054479;28;20116;-67
2021/11/07 05:41:04;;;;;;;34.17;24.98;;;;;;;;;;5054309;28;20127;-67
2021/11/07 05:43:30;;;;;;;29.55;22.60;;;;;;;;;;5054162;28;20022;-67
2021/11/07 05:45:56;;;;;;;31.52;23.60;;;;;;;;;;5053995;28;20166;-67
2021/11/07 05:48:22;;;;;;;30.33;23.13;;;;;;;;;;5054302;28;20389;-67
2021/11/07 05:50:49;;;;;;;26.98;20.52;;;;;;;;;;5055215;28;20389;-68
2021/11/07 05:53:15;;;;;;;24.63;19.63;;;;;;;;;;5054171;28;20091;-67
2021/11/07 05:55:41;;;;;;;25.63;20.60;;;;;;;;;;5054224;28;20044;-67
2021/11/07 05:58:07;;;;;;;21.50;17.17;;;;;;;;;;5054025;28;20429;-67
2021/11/07 06:00:33;;;;;;;19.33;16.65;;;;;;;;;;5053975;28;20094;-67
2021/11/07 06:03:01;;;;;;;21.95;18.88;;;;;;;;;;5054242;28;20465;-66
2021/11/07 06:05:28;;;;;;;21.48;17.33;;;;;;;;;;5053298;28;20435;-66
2021/11/07 06:07:54;;;;;;;23.25;17.58;;;;;;;;;;5054028;28;20047;-66
2021/11/07 06:10:20;;;;;;;22.45;16.85;;;;;;;;;;5036137;28;20540;-68
2021/11/07 06:12:46;;;;;;;21.40;17.45;;;;;;;;;;5054034;28;20060;-67
2021/11/07 06:15:12;;;;;;;21.83;17.60;;;;;;;;;;5053591;28;20057;-66
2021/11/07 06:17:38;;;;;;;19.90;17.48;;;;;;;;;;5053846;28;20032;-67
2021/11/07 06:20:05;;;;;;;23.17;17.58;;;;;;;;;;5053701;28;20083;-67
2021/11/07 06:22:31;;;;;;;25.13;18.40;;;;;;;;;;5035904;28;20116;-67
2021/11/07 06:24:58;;;;;;;23.27;17.65;;;;;;;;;;5035670;28;20524;-67
2021/11/07 06:27:28;;;;;;;22.13;18.55;;;;;;;;;;5053856;28;20013;-67
2021/11/07 06:29:54;;;;;;;24.25;17.80;;;;;;;;;;5035387;28;20102;-68
2021/11/07 06:32:20;;;;;;;23.23;16.80;;;;;;;;;;5053530;28;20028;-66
2021/11/07 06:34:46;;;;;;;21.83;15.50;;;;;;;;;;5053236;28;20104;-67
2021/11/07 06:37:12;;;;;;;23.98;16.23;;;;;;;;;;5053448;28;20025;-68
2021/11/07 06:39:39;;;;;;;22.77;15.43;;;;;;;;;;5053554;28;20028;-68
2021/11/07 06:42:06;;;;;;;23.02;15.48;;;;;;;;;;5053424;28;20401;-67
2021/11/07 06:44:34;;;;;;;25.83;16.15;;;;;;;;;;5052962;28;20036;-67
2021/11/07 06:47:00;;;;;;;25.40;15.77;;;;;;;;;;5053530;28;20017;-67
2021/11/07 06:49:27;;;;;;;26.55;14.98;;;;;;;;;;5035120;28;20024;-67
2021/11/07 06:51:53;;;;;;;23.15;15.80;;;;;;;;;;5053457;28;20032;-67
2021/11/07 06:54:19;;;;;;;22.90;13.57;;;;;;;;;;5034996;28;20036;-67
2021/11/07 06:56:45;;;;;;;28.67;15.15;;;;;;;;;;5053032;28;20021;-67
2021/11/07 06:59:11;;;;;;;21.20;13.05;;;;;;;;;;5053078;28;20029;-64
2021/11/07 07:01:37;;;;;;;27.45;13.38;;;;;;;;;;5053008;28;20054;-67
2021/11/07 07:04:04;;;;;;;23.13;13.63;;;;;;;;;;5052998;28;20104;-65
2021/11/07 07:06:31;;;;;;;23.35;13.15;;;;;;;;;;5035123;28;20024;-67
2021/11/07 07:09:06;;;;;;;30.92;14.15;;;;;;;;;;5035187;28;20021;-66
2021/11/07 07:11:43;;;;;;;27.92;12.95;;;;;;;;;;5052897;28;20021;-65
2021/11/07 07:14:13;;;;;;;25.10;12.52;;;;;;;;;;5052788;28;20056;-68
2021/11/07 07:16:45;;;;;;;25.17;14.15;;;;;;;;;;5052957;28;20048;-68
2021/11/07 07:21:51;;;;;;;23.08;13.40;;;;;;;;;;5052667;28;20491;-67
2021/11/07 07:24:41;;;;;;;24.80;14.57;;;;;;;;;;5034992;28;20036;-68
2021/11/07 07:35:01;;;;;;;27.52;14.00;;;;;;;;;;5054550;28;20565;-69
2021/11/07 07:37:27;;;;;;;26.08;13.95;;;;;;;;;;5052279;28;20025;-69
2021/11/07 07:39:53;;;;;;;22.58;12.82;;;;;;;;;;5052398;28;20048;-68
2021/11/07 07:42:20;;;;;;;26.13;15.63;;;;;;;;;;5034672;28;20060;-68
2021/11/07 07:44:49;;;;;;;28.48;15.75;;;;;;;;;;5034117;28;20035;-68
2021/11/07 07:47:16;;;;;;;23.00;13.07;;;;;;;;;;5034835;28;20616;-68
2021/11/07 07:49:42;;;;;;;23.30;14.70;;;;;;;;;;5034692;28;20047;-67
2021/11/07 07:52:08;;;;;;;25.02;17.25;;;;;;;;;;5034637;28;20540;-67
2021/11/07 07:54:34;;;;;;;27.23;15.45;;;;;;;;;;5034309;28;20035;-67
2021/11/07 07:57:00;;;;;;;23.80;14.45;;;;;;;;;;5052250;28;20021;-67
2021/11/07 07:59:26;;;;;;;30.73;16.35;;;;;;;;;;5034284;28;20592;-68
2021/11/07 08:01:52;;;;;;;26.55;15.75;;;;;;;;;;5052038;28;20033;-67
2021/11/07 08:04:19;;;;;;;24.25;15.40;;;;;;;;;;5034205;28;20032;-67
2021/11/07 08:06:45;;;;;;;29.65;17.00;;;;;;;;;;5034072;28;20025;-66
2021/11/07 08:09:11;;;;;;;28.60;16.52;;;;;;;;;;5033953;28;20499;-68
2021/11/07 08:11:39;;;;;;;35.55;15.82;;;;;;;;;;5033696;28;20025;-67
2021/11/07 08:14:05;;;;;;;28.73;16.23;;;;;;;;;;5051381;28;20397;-67
2021/11/07 08:16:32;;;;;;;29.33;16.35;;;;;;;;;;5051649;28;20025;-67
2021/11/07 08:18:58;;;;;;;29.13;15.77;;;;;;;;;;5033685;28;20024;-67
2021/11/07 08:21:26;;;;;;;28.08;15.50;;;;;;;;;;5033658;28;20031;-67
2021/11/07 08:23:53;;;;;;;32.22;17.27;;;;;;;;;;5033478;28;20476;-67
2021/11/07 08:26:20;;;;;;;24.85;14.57;;;;;;;;;;5033774;28;20025;-69
2021/11/07 08:28:46;;;;;;;26.23;14.38;;;;;;;;;;5033403;28;20017;-67
2021/11/07 08:31:21;;;;;;;24.23;13.20;;;;;;;;;;5034149;28;20083;-67
2021/11/07 08:33:47;;;;;;;29.45;15.35;;;;;;;;;;5034148;28;20393;-67
2021/11/07 08:36:21;;;;;;;28.05;13.68;;;;;;;;;;5034023;28;20025;-68
2021/11/07 08:38:54;;;;;;;27.20;12.40;;;;;;;;;;5033611;28;20040;-67
2021/11/07 08:41:22;;;;;;;29.27;10.20;;;;;;;;;;5033568;28;20032;-67
2021/11/07 09:02:59;;;;;;;20.63;6.95;;;;;;;;;;5050669;28;20116;-68
2021/11/07 09:08:12;;;;;;;24.40;7.90;;;;;;;;;;5050557;28;20067;-68
2021/11/07 09:10:38;;;;;;;24.63;6.68;;;;;;;;;;5051044;28;20071;-69
2021/11/07 09:13:06;;;;;;;18.77;6.15;;;;;;;;;;5050756;28;20039;-68
2021/11/07 09:15:33;;;;;;;31.38;7.78;;;;;;;;;;5050639;28;20036;-68
2021/11/07 09:18:00;;;;;;;21.05;6.53;;;;;;;;;;5050764;28;20044;-68
2021/11/07 09:20:33;;;;;;;25.83;7.22;;;;;;;;;;5050126;28;20481;-68
2021/11/07 09:23:17;;;;;;;14.90;4.93;;;;;;;;;;5033037;28;20057;-69
2021/11/07 09:25:57;;;;;;;27.25;7.53;;;;;;;;;;5050954;28;20025;-68
2021/11/07 09:33:45;;;;;;;21.05;7.22;;;;;;;;;;5050668;28;20029;-67
2021/11/07 09:38:54;;;;;;;23.45;6.38;;;;;;;;;;5050833;28;20055;-67
2021/11/07 09:41:32;;;;;;;21.35;6.45;;;;;;;;;;5052750;28;20025;-67
2021/11/07 09:44:09;;;;;;;24.23;6.65;;;;;;;;;;5036316;28;20055;-69
2021/11/07 09:46:48;;;;;;;20.77;6.07;;;;;;;;;;5054602;28;20388;-68
2021/11/07 09:49:18;;;;;;;20.73;6.25;;;;;;;;;;5036335;28;20542;-67
2021/11/07 09:51:48;;;;;;;21.45;5.72;;;;;;;;;;5054376;28;20125;-68
2021/11/07 09:54:17;;;;;;;22.25;6.65;;;;;;;;;;5035943;28;20107;-68
2021/11/07 09:56:55;;;;;;;26.35;6.50;;;;;;;;;;5053938;28;20025;-67
2021/11/07 09:59:22;;;;;;;25.77;6.13;;;;;;;;;;5053881;28;20333;-68
2021/11/07 10:01:51;;;;;;;21.85;5.70;;;;;;;;;;5054159;28;20025;-70
2021/11/07 10:04:22;;;;;;;18.17;6.32;;;;;;;;;;5054053;28;20112;-69
2021/11/07 10:06:51;;;;;;;25.35;7.90;;;;;;;;;;5053618;28;20489;-68
2021/11/07 10:09:52;;;;;;;18.63;6.20;;;;;;;;;;5054202;28;20427;-69
2021/11/07 10:12:31;;;;;;;18.38;6.43;;;;;;;;;;5042995;28;20094;-69
2021/11/07 10:15:01;;;;;;;22.15;7.00;;;;;;;;;;5053691;28;20102;-69
2021/11/07 10:17:43;;;;;;;21.20;6.00;;;;;;;;;;5053733;28;20031;-69
2021/11/07 10:20:18;;;;;;;24.73;7.63;;;;;;;;;;5035970;28;20035;-69
2021/11/07 10:22:48;;;;;;;21.38;6.97;;;;;;;;;;5053612;28;20021;-69
2021/11/07 10:25:23;;;;;;;22.00;6.07;;;;;;;;;;5035344;28;20025;-69
2021/11/07 10:27:52;;;;;;;22.92;6.45;;;;;;;;;;5053898;28;20105;-69
2021/11/07 10:30:22;;;;;;;25.30;6.82;;;;;;;;;;5053305;28;20070;-68
2021/11/07 10:33:00;;;;;;;18.83;7.25;;;;;;;;;;5039362;28;20032;-69
2021/11/07 10:38:44;;;;;;;20.55;6.45;;;;;;;;;;5053580;28;20095;-69
2021/11/07 10:47:00;;;;;;;25.65;6.85;;;;;;;;;;5042802;28;20029;-69
2021/11/07 10:52:21;;;;;;;22.27;7.35;;;;;;;;;;5050332;28;20036;-69
2021/11/07 10:54:47;;;;;;;22.45;7.70;;;;;;;;;;5031149;28;20029;-69
2021/11/07 10:57:15;;;;;;;27.90;7.25;;;;;;;;;;5034813;28;20047;-69
2021/11/07 10:59:42;;;;;;;21.90;7.97;;;;;;;;;;5034863;28;20049;-70
2021/11/07 11:02:26;;;;;;;24.42;7.88;;;;;;;;;;5034781;28;20476;-67
2021/11/07 11:05:03;;;;;;;19.52;7.90;;;;;;;;;;5049397;28;20033;-67
2021/11/07 11:07:30;;;;;;;23.27;8.88;;;;;;;;;;5050049;28;20025;-67
2021/11/07 11:10:19;;;;;;;22.92;8.50;;;;;;;;;;5033719;28;20029;-67
2021/11/07 11:13:06;;;;;;;20.92;7.78;;;;;;;;;;5052488;28;20112;-68
2021/11/07 11:15:48;;;;;;;17.65;8.30;;;;;;;;;;5052055;28;20017;-68
2021/11/07 11:18:32;;;;;;;22.08;7.65;;;;;;;;;;5034211;28;20519;-67
2021/11/07 11:21:10;;;;;;;21.25;7.63;;;;;;;;;;5034266;28;20041;-67
2021/11/07 11:23:43;;;;;;;19.02;7.90;;;;;;;;;;5033827;28;20093;-67
2021/11/07 11:26:14;;;;;;;20.92;8.55;;;;;;;;;;5048890;28;20032;-67
2021/11/07 11:29:02;;;;;;;20.27;8.43;;;;;;;;;;5031852;28;20021;-67
2021/11/07 11:31:52;;;;;;;20.83;10.38;;;;;;;;;;5047780;28;20029;-68
2021/11/07 11:34:22;;;;;;;20.40;9.10;;;;;;;;;;4330729;28;10000455;-67
2021/11/07 11:36:58;;;;;;;25.63;7.90;;;;;;;;;;5030173;28;20408;-68
2021/11/07 11:39:32;;;;;;;22.85;8.57;;;;;;;;;;5048726;28;20094;-67
2021/11/07 11:42:05;;;;;;;21.48;8.73;;;;;;;;;;5047115;28;20025;-67
2021/11/07 11:44:32;;;;;;;20.20;8.90;;;;;;;;;;5049303;28;20017;-68
2021/11/07 11:47:15;;;;;;;19.08;8.48;;;;;;;;;;5047608;28;20025;-67
2021/11/07 11:55:17;;;;;;;19.52;9.68;;;;;;;;;;5066515;28;20698;-68
2021/11/07 11:57:58;;;;;;;17.52;7.65;;;;;;;;;;5049464;28;20052;-67
2021/11/07 12:10:43;;;;;;;16.35;7.20;;;;;;;;;;5082523;28;20028;-68
2021/11/07 12:13:32;;;;;;;18.92;7.82;;;;;;;;;;5068579;28;20024;-67
2021/11/07 12:16:04;;;;;;;22.65;7.55;;;;;;;;;;5069762;28;20115;-67
2021/11/07 12:18:31;;;;;;;14.57;6.80;;;;;;;;;;5069150;28;20055;-68
2021/11/07 12:20:57;;;;;;;18.17;7.15;;;;;;;;;;5068862;28;20077;-67
2021/11/07 12:23:28;;;;;;;16.10;7.00;;;;;;;;;;5066103;28;20158;-67
2021/11/07 12:25:56;;;;;;;15.25;7.65;;;;;;;;;;5086035;28;20048;-68
2021/11/07 12:28:43;;;;;;;15.88;7.13;;;;;;;;;;5086910;28;20020;-68
2021/11/07 12:31:09;;;;;;;17.73;7.95;;;;;;;;;;5086691;28;20055;-68
2021/11/07 12:33:55;;;;;;;20.23;8.60;;;;;;;;;;5086550;28;20035;-68
2021/11/07 12:36:33;;;;;;;17.60;7.68;;;;;;;;;;5088018;28;20056;-66
2021/11/07 12:41:44;;;;;;;16.63;8.40;;;;;;;;;;5078646;28;20403;-67
2021/11/07 12:44:20;;;;;;;16.75;9.10;;;;;;;;;;5070409;28;20031;-67
2021/11/07 12:49:18;;;;;;;28.27;9.85;;;;;;;;;;5067577;28;20437;-67
2021/11/07 12:51:45;;;;;;;17.85;7.22;;;;;;;;;;5070399;28;20040;-67
2021/11/07 12:54:18;;;;;;;15.33;6.50;;;;;;;;;;5086897;28;20043;-68
2021/11/07 12:56:47;;;;;;;17.98;6.65;;;;;;;;;;5073844;28;20511;-68
2021/11/07 12:59:24;;;;;;;18.27;6.70;;;;;;;;;;5079590;28;20028;-68
2021/11/07 13:02:01;;;;;;;22.70;7.47;;;;;;;;;;5075293;28;20094;-68
2021/11/07 13:04:27;;;;;;;18.48;7.57;;;;;;;;;;5081695;28;20506;-67
2021/11/07 13:06:56;;;;;;;18.70;7.15;;;;;;;;;;5088324;28;20475;-68
2021/11/07 13:09:31;;;;;;;18.27;8.40;;;;;;;;;;5072003;28;20101;-68
2021/11/07 13:11:58;;;;;;;16.88;8.38;;;;;;;;;;5090888;28;20031;-68
2021/11/07 13:14:45;;;;;;;18.25;9.48;;;;;;;;;;5091519;28;20020;-67
2021/11/07 13:20:25;;;;;;;16.90;8.35;;;;;;;;;;5095733;28;20080;-68
2021/11/07 13:25:58;;;;;;;18.48;7.43;;;;;;;;;;5076061;28;20467;-67
2021/11/07 13:31:05;;;;;;;23.48;7.50;;;;;;;;;;5095357;28;20043;-69
2021/11/07 13:33:31;;;;;;;16.70;6.55;;;;;;;;;;5094578;28;20044;-67
2021/11/07 13:36:00;;;;;;;24.55;7.25;;;;;;;;;;4741772;28;9999904;-68
2021/11/07 13:38:28;;;;;;;21.13;7.80;;;;;;;;;;5092290;28;20026;-67
2021/11/07 13:40:54;;;;;;;16.25;7.13;;;;;;;;;;5062448;28;20078;-68
2021/11/07 13:43:27;;;;;;;20.58;7.55;;;;;;;;;;5071415;28;20138;-68
2021/11/07 13:45:55;;;;;;;22.73;7.70;;;;;;;;;;5053134;28;20038;-68
2021/11/07 13:48:24;;;;;;;21.33;8.75;;;;;;;;;;5086249;28;20454;-68
2021/11/07 13:50:52;;;;;;;18.23;8.35;;;;;;;;;;5071707;28;20055;-68
2021/11/07 13:53:22;;;;;;;18.38;7.65;;;;;;;;;;5090170;28;20016;-69
2021/11/07 13:55:53;;;;;;;19.00;8.23;;;;;;;;;;5090407;28;20054;-68
2021/11/07 13:58:21;;;;;;;19.67;8.13;;;;;;;;;;5090407;28;20066;-68
2021/11/07 14:00:49;;;;;;;17.40;7.22;;;;;;;;;;5090263;28;20447;-68
2021/11/07 14:03:19;;;;;;;21.77;9.73;;;;;;;;;;5086214;28;20024;-68
2021/11/07 14:05:48;;;;;;;20.08;9.07;;;;;;;;;;5069425;28;20032;-68
2021/11/07 14:08:14;;;;;;;25.65;9.48;;;;;;;;;;5087514;28;20024;-68
2021/11/07 14:10:40;;;;;;;20.27;7.78;;;;;;;;;;5086580;28;20103;-68
2021/11/07 14:13:08;;;;;;;20.15;8.90;;;;;;;;;;5071398;28;20111;-67
2021/11/07 14:15:36;;;;;;;13.93;6.90;;;;;;;;;;5071988;28;20024;-68
2021/11/07 14:18:15;;;;;;;19.38;7.70;;;;;;;;;;5090008;28;20031;-69
2021/11/07 14:20:47;;;;;;;19.23;7.38;;;;;;;;;;5086559;28;20071;-68
2021/11/07 14:23:39;;;;;;;23.33;8.90;;;;;;;;;;5059301;28;20103;-68
2021/11/07 14:26:14;;;;;;;18.52;7.80;;;;;;;;;;5077191;28;20016;-68
2021/11/07 14:28:50;;;;;;;21.20;8.05;;;;;;;;;;5083032;28;20085;-68
2021/11/07 14:31:21;;;;;;;20.00;9.15;;;;;;;;;;5062695;28;20369;-68
2021/11/07 14:33:52;;;;;;;19.17;7.88;;;;;;;;;;5077867;28;20513;-68
2021/11/07 14:39:04;;;;;;;15.88;7.60;;;;;;;;;;5080324;28;20034;-67
2021/11/07 14:44:35;;;;;;;;;;;;;;;;;;5055535;28;20415;-68
2021/11/07 14:47:23;;;;;;;17.98;7.50;;;;;;;;;;5090111;28;19940;-68
2021/11/07 14:50:13;;;;;;;16.50;6.70;;;;;;;;;;5071245;28;20032;-68
2021/11/07 14:55:23;;;;;;;15.98;6.78;;;;;;;;;;5089783;28;20027;-68
2021/11/07 15:01:22;;;;;;;;;;;;;;;;;;5026655;28;20355;-68
2021/11/07 15:03:56;;;;;;;14.95;5.47;;;;;;;;;;5082993;28;19929;-68
2021/11/07 15:06:35;;;;;;;17.30;5.53;;;;;;;;;;5079290;28;20076;-68
2021/11/07 15:09:06;;;;;;;16.23;5.45;;;;;;;;;;5081614;28;20024;-68
2021/11/07 15:14:20;;;;;;;14.65;5.60;;;;;;;;;;5080257;28;20056;-68
2021/11/07 15:16:54;;;;;;;13.88;5.93;;;;;;;;;;5076968;28;20060;-68
2021/11/07 15:19:31;;;;;;;15.20;5.32;;;;;;;;;;5079132;28;20095;-67
2021/11/07 15:24:27;;;;;;;18.40;6.82;;;;;;;;;;5078324;28;20039;-68
2021/11/07 15:26:57;;;;;;;17.70;8.95;;;;;;;;;;5059285;28;20051;-68
2021/11/07 15:29:30;;;;;;;20.20;9.88;;;;;;;;;;5080197;28;20024;-69
2021/11/07 15:32:01;;;;;;;18.65;10.25;;;;;;;;;;5088585;28;20517;-68
2021/11/07 15:34:33;;;;;;;20.05;11.65;;;;;;;;;;5088642;28;20036;-68
2021/11/07 15:37:00;;;;;;;25.40;12.00;;;;;;;;;;5088876;28;20020;-68
2021/11/07 15:39:27;;;;;;;28.08;14.70;;;;;;;;;;5082381;28;20028;-69
2021/11/07 15:42:09;;;;;;;22.00;15.00;;;;;;;;;;5086119;28;20031;-69
2021/11/07 15:44:47;;;;;;;22.02;14.80;;;;;;;;;;5088561;28;20062;-68
2021/11/07 15:47:14;;;;;;;22.33;14.82;;;;;;;;;;5070659;28;20391;-68
2021/11/07 15:49:47;;;;;;;21.02;13.73;;;;;;;;;;5070284;28;20645;-68
2021/11/07 15:57:43;;;;;;;18.98;14.25;;;;;;;;;;5083434;28;20055;-69
2021/11/07 16:00:20;;;;;;;27.23;14.95;;;;;;;;;;5066904;28;20025;-69
2021/11/07 16:05:53;;;;;;;22.35;12.70;;;;;;;;;;5069858;28;20028;-68
2021/11/07 16:08:25;;;;;;;20.23;11.30;;;;;;;;;;5069611;28;20032;-68
2021/11/07 16:11:10;;;;;;;20.58;11.65;;;;;;;;;;5070317;28;20024;-67
2021/11/07 16:18:35;;;;;;;20.77;11.23;;;;;;;;;;5070130;28;20507;-68
2021/11/07 16:21:02;;;;;;;17.17;10.82;;;;;;;;;;5070571;28;20020;-68
2021/11/07 16:23:28;;;;;;;27.45;11.25;;;;;;;;;;5052511;28;20252;-67
2021/11/07 16:25:54;;;;;;;25.13;11.50;;;;;;;;;;5070609;28;20096;-68
2021/11/07 16:28:21;;;;;;;17.40;10.23;;;;;;;;;;5070691;28;20029;-67
2021/11/07 16:30:47;;;;;;;21.55;10.68;;;;;;;;;;5070718;28;20040;-68
2021/11/07 16:33:24;;;;;;;21.30;10.25;;;;;;;;;;5070147;28;20457;-68
2021/11/07 16:36:07;;;;;;;23.20;10.10;;;;;;;;;;5084214;28;20031;-68
2021/11/07 16:38:55;;;;;;;22.95;11.38;;;;;;;;;;5090831;28;20063;-68
2021/11/07 16:43:48;;;;;;;22.98;10.38;;;;;;;;;;5090774;28;20035;-68
2021/11/07 16:46:19;;;;;;;21.02;10.30;;;;;;;;;;5090546;28;20043;-68
2021/11/07 16:48:47;;;;;;;22.52;10.98;;;;;;;;;;5090729;28;20032;-67
2021/11/07 16:51:33;;;;;;;20.63;11.02;;;;;;;;;;5076263;28;20040;-68
2021/11/07 16:54:21;;;;;;;30.63;12.15;;;;;;;;;;5094603;28;20016;-68
2021/11/07 16:56:47;;;;;;;23.73;11.50;;;;;;;;;;5095153;28;20021;-67
2021/11/07 16:59:41;;;;;;;27.98;12.05;;;;;;;;;;5076729;28;20353;-68
2021/11/07 17:04:52;;;;;;;25.88;12.27;;;;;;;;;;5094982;28;20035;-68
2021/11/07 17:07:25;;;;;;;21.92;10.45;;;;;;;;;;5076623;28;20020;-68